Monday, July 23, 2018, 11:05 AM EDT
Back to Local

KAQW, N Adams Harriman-and-west

Location: North Adams, MA, United States Lat: 42.7
Local Time: 11:05 AM EDT (15:05 GMT) Lon: -73.167
Time Zone: US/Eastern Elev: 652 ft

Show me the last for .
Show Decoded

2018-07-23 10:52 METAR KAQW 231452Z AUTO 11005KT 3SM -RA BR SCT026 BKN039 OVC080 24/22 A3015 RMK
                 AO2 SLP206 P0018 60068 T02390222 50004 =
2018-07-23 10:31 METAR KAQW 231431Z AUTO 10005KT 7SM -RA SCT026 BKN035 OVC065 23/22 A3015 RMK AO2
                 P0015 T02330222 =
2018-07-23 10:24 METAR KAQW 231424Z AUTO 10006KT 4SM -RA BR FEW021 BKN029 OVC065 23/22 A3015 RMK
                 AO2 P0015 T02330222 =
2018-07-23 10:16 METAR KAQW 231416Z AUTO VRB05KT 2SM RA BR BKN023 BKN032 OVC060 23/22 A3015 RMK
                 AO2 P0014 T02280222 =
2018-07-23 10:12 METAR KAQW 231412Z AUTO 09005KT 1SM RA BR BKN023 BKN032 OVC044 23/22 A3015 RMK
                 AO2 P0014 T02280222 =
2018-07-23 10:05 METAR KAQW 231405Z AUTO 09007KT 1 1/2SM RA BR BKN023 BKN032 OVC040 23/22 A3016
                 RMK AO2 P0009 T02330217 =
2018-07-23 10:03 METAR KAQW 231403Z AUTO 11009KT 3SM -RA BR BKN023 OVC038 23/22 A3016 RMK AO2
                 P0004 T02330222 =
2018-07-23 09:52 METAR KAQW 231352Z AUTO 00000KT 2 1/2SM RA BR FEW019 BKN027 OVC049 23/22 A3016
                 RMK AO2 VIS 1V5 SLP209 P0047 T02280217 =
2018-07-23 09:49 METAR KAQW 231349Z AUTO 10004KT 3SM -RA BR FEW018 BKN029 OVC049 23/22 A3015 RMK
                 AO2 P0046 =
2018-07-23 09:45 METAR KAQW 231345Z AUTO VRB04KT 1 1/2SM -RA BR BKN025 BKN042 OVC049 23/22 A3015
                 RMK AO2 P0045 T02280217 =
2018-07-23 09:34 METAR KAQW 231334Z AUTO VRB04KT 3/4SM +RA BR FEW009 BKN027 OVC049 23/22 A3016
                 RMK AO2 P0037 T02280217 =
2018-07-23 09:29 METAR KAQW 231329Z AUTO VRB03KT 1 3/4SM RA BR FEW009 SCT020 OVC028 23/22 A3015
                 RMK AO2 VIS 1V2 1/2 P0028 T02280217 =
2018-07-23 09:16 METAR KAQW 231316Z AUTO 00000KT 1 1/4SM +RA BR FEW010 BKN024 OVC033 23/22 A3015
                 RMK AO2 P0021 T02280217 =
2018-07-23 09:10 METAR KAQW 231310Z AUTO VRB03KT 2SM RA BR BKN026 OVC033 23/22 A3015 RMK AO2
                 P0015 T02280217 =
2018-07-23 09:07 METAR KAQW 231307Z AUTO VRB03KT 1 1/4SM RA BR FEW023 BKN031 OVC043 23/22 A3014
                 RMK AO2 P0014 T02280222 =
2018-07-23 09:04 METAR KAQW 231304Z AUTO VRB03KT 3/4SM RA BR FEW023 BKN028 OVC043 23/22 A3014 RMK
                 AO2 P0014 T02280217 =
2018-07-23 08:56 METAR KAQW 231256Z AUTO 10006KT 1 1/4SM RA BR SCT028 BKN034 OVC049 23/22 A3014
                 RMK AO2 P0007 T02330217 =
2018-07-23 08:52 METAR KAQW 231252Z AUTO 09005KT 2SM RA BR FEW024 BKN034 OVC049 23/22 A3014 RMK
                 AO2 RAB1159E09B32 SLP204 P0003 T02330217 =
2018-07-23 07:52 METAR KAQW 231152Z AUTO 10006KT 10SM FEW025 FEW034 SCT042 24/22 A3014 RMK AO2
                 SLP201 60029 70067 T02440222 10244 20217 51012 =
2018-07-23 06:52 METAR KAQW 231052Z AUTO 12005KT 10SM FEW024 SCT110 23/22 A3012 RMK AO2 RAE28
                 SLP196 P0000 T02280217 =
2018-07-23 06:03 METAR KAQW 231003Z AUTO 10005KT 8SM -RA FEW020 BKN031 OVC050 22/21 A3012 RMK AO2
                 P0000 T02170211 =
2018-07-23 05:54 METAR KAQW 230954Z AUTO 09004KT 2SM RA BR FEW027 BKN032 OVC065 22/21 A3012 RMK
                 AO2 VIS 1V5 P0000 T02170211 =
2018-07-23 05:52 METAR KAQW 230952Z AUTO 10006KT 1 1/2SM RA BR BKN028 BKN035 OVC065 22/21 A3012
                 RMK AO2 RAB15 SLP196 P0021 T02170211 =
2018-07-23 05:46 METAR KAQW 230946Z AUTO 06006KT 1 3/4SM +RA BR BKN029 BKN065 BKN075 22/21 A3012
                 RMK AO2 RAB15 P0019 =
2018-07-23 04:52 METAR KAQW 230852Z AUTO 09006KT 10SM FEW021 SCT029 BKN090 22/21 A3010 RMK AO2
                 RAB19E39 SLP189 P0003 60008 T02170206 58000 =
2018-07-23 04:44 METAR KAQW 230844Z AUTO 11006KT 10SM FEW022 BKN031 BKN050 22/21 A3010 RMK AO2
                 RAB19E39 P0003 T02170206 =
2018-07-23 04:15 METAR KAQW 230815Z AUTO 11008KT 10SM BKN025 OVC032 22/21 A3010 RMK AO2 T02170206
                 =
2018-07-23 03:52 METAR KAQW 230752Z AUTO 08004KT 10SM FEW024 BKN032 22/21 A3010 RMK AO2 RAE07
                 SLP189 P0000 T02170206 =
2018-07-23 02:52 METAR KAQW 230652Z AUTO VRB04KT 8SM -RA FEW019 BKN044 OVC090 22/21 A3010 RMK AO2
                 SLP190 P0005 T02170206 =
2018-07-23 01:52 METAR KAQW 230552Z AUTO 10006KT 4SM RA BR SCT055 BKN070 OVC080 22/21 A3010 RMK
                 AO2 RAB0458 SLP189 P0028 60035 T02170206 10244 20211 55001 =
2018-07-23 01:45 METAR KAQW 230545Z AUTO 11005KT 3SM +RA BR BKN055 BKN065 OVC090 22/21 A3010 RMK
                 AO2 RAB0458 P0026 T02170206 =
2018-07-23 01:34 METAR KAQW 230534Z AUTO 10006KT 2SM +RA BR FEW022 BKN060 OVC100 22/21 A3010 RMK
                 AO2 RAB0458 P0020 T02170206 =
2018-07-23 01:00 METAR KAQW 230500Z AUTO 09003KT 10SM -RA FEW019 SCT032 BKN048 22/21 A3010 RMK
                 AO2 RAB0458 P0000 T02170206 =
2018-07-23 00:52 METAR KAQW 230452Z AUTO VRB03KT 10SM SCT020 BKN029 BKN033 22/21 A3010 RMK AO2
                 SLP190 T02170206 402830172 =
2018-07-23 00:14 METAR KAQW 230414Z AUTO 09005KT 10SM BKN021 BKN029 BKN035 22/21 A3010 RMK AO2
                 T02170206 =
2018-07-22 23:52 METAR KAQW 230352Z AUTO 10006KT 10SM FEW025 BKN036 OVC095 22/21 A3010 RMK AO2
                 RAE48 SLP190 P0007 T02170206 =
2018-07-22 23:17 METAR KAQW 230317Z AUTO 10006KT 6SM RA BR FEW021 SCT036 OVC043 22/21 A3010 RMK
                 AO2 P0002 T02220206 =
2018-07-22 22:52 METAR KAQW 230252Z AUTO 08006KT 7SM -RA SCT022 BKN027 OVC035 22/20 A3010 RMK AO2
                 RAE0154B47 SLP192 P0000 60000 T02220200 51013 =
2018-07-22 21:52 METAR KAQW 230152Z AUTO 10007KT 8SM -RA OVC021 23/20 A3010 RMK AO2 RAB40 SLP190
                 P0000 T02280200 =
2018-07-22 21:21 METAR KAQW 230121Z AUTO 11007KT 10SM BKN023 BKN030 23/19 A3009 RMK AO2 T02330194
                 =
2018-07-22 20:52 METAR KAQW 230052Z AUTO 11010G16KT 10SM FEW043 24/18 A3008 RMK AO2 SLP184
                 T02390183 =
2018-07-22 19:52 METAR KAQW 222352Z AUTO 12009KT 10SM FEW032 24/19 A3007 RMK AO2 SLP179 T02440189
                 10283 20244 53016 =
2018-07-22 18:52 METAR KAQW 222252Z AUTO 15012G21KT 10SM FEW033 SCT060 26/19 A3004 RMK AO2 SLP169
                 T02610189 =
2018-07-22 17:52 METAR KAQW 222152Z AUTO 10008KT 10SM SCT035 BKN055 27/20 A3003 RMK AO2 SLP166
                 T02670200 =
2018-07-22 16:52 METAR KAQW 222052Z AUTO 13010KT 10SM FEW043 SCT060 27/20 A3002 RMK AO2 SLP162
                 T02720200 53009 =
2018-07-22 15:52 METAR KAQW 221952Z AUTO 11010KT 10SM FEW040 FEW050 BKN065 28/20 A3000 RMK AO2
                 SLP155 T02780200 =
2018-07-22 14:52 METAR KAQW 221852Z AUTO 13013G25KT 10SM SCT038 SCT050 28/20 A3000 RMK AO2 SLP155
                 T02780200 =
2018-07-22 13:52 METAR KAQW 221752Z AUTO 12014G26KT 10SM FEW030 SCT037 BKN046 27/21 A2999 RMK AO2
                 PK WND 11026/1743 SLP153 60003 T02670206 10267 20178 58001 =
2018-07-22 13:30 METAR KAQW 221730Z AUTO 11012G23KT 060V150 10SM SCT032 BKN041 26/19 A2999 RMK
                 AO2 T02560194 =
2018-07-22 13:21 METAR KAQW 221721Z AUTO 13013G17KT 10SM BKN029 BKN038 26/20 A3000 RMK AO2
                 T02560200 =
2018-07-22 13:14 METAR KAQW 221714Z AUTO 13009G17KT 10SM SCT026 BKN032 OVC040 25/20 A3000 RMK AO2
                 T02500200 =
2018-07-22 12:52 METAR KAQW 221652Z AUTO 11009G17KT 10SM BKN024 OVC034 24/19 A3000 RMK AO2
                 RAE1553B21E31 SLP155 P0000 T02440194 =
2018-07-22 11:52 METAR KAQW 221552Z AUTO 09009G17KT 10SM -RA BKN015 OVC019 21/19 A3000 RMK AO2
                 RAB24 SLP155 P0000 T02110189 =

Support USWX by starting your Amazon purchase here.